createdAt,value
2019-04-27T00:00:32.858Z,100.00
2019-04-27T00:03:02.352Z,100.00
2019-04-27T00:05:48.142Z,100.00
2019-04-27T00:08:21.165Z,100.00
2019-04-27T00:10:51.219Z,100.00
2019-04-27T00:13:19.642Z,100.00
2019-04-27T00:15:49.664Z,100.00
2019-04-27T00:18:19.730Z,100.00
2019-04-27T00:20:55.668Z,100.00
2019-04-27T00:23:25.827Z,100.00
2019-04-27T00:25:54.207Z,99.89
2019-04-27T00:28:23.070Z,100.00
2019-04-27T00:30:53.132Z,100.00
2019-04-27T00:33:23.422Z,100.00
2019-04-27T00:35:53.872Z,100.00
2019-04-27T00:38:24.199Z,100.00
2019-04-27T00:40:54.306Z,100.00
2019-04-27T00:43:22.998Z,100.00
2019-04-27T00:45:53.654Z,100.00
2019-04-27T00:48:23.382Z,100.00
2019-04-27T00:50:52.897Z,100.00
2019-04-27T00:53:21.476Z,100.00
2019-04-27T00:55:51.669Z,100.00
2019-04-27T00:58:23.099Z,100.00
2019-04-27T01:00:54.010Z,100.00
2019-04-27T01:03:24.382Z,100.00
2019-04-27T01:05:53.194Z,100.00
2019-04-27T01:08:22.949Z,100.00
2019-04-27T01:10:51.419Z,100.00
2019-04-27T01:13:20.049Z,100.00
2019-04-27T01:15:48.469Z,100.00
2019-04-27T01:18:17.039Z,100.00
2019-04-27T01:20:45.451Z,100.00
2019-04-27T01:23:14.050Z,100.00
2019-04-27T01:26:00.542Z,100.00
2019-04-27T01:28:30.661Z,100.00
2019-04-27T01:31:00.774Z,100.00
2019-04-27T01:33:30.288Z,100.00
2019-04-27T01:35:58.997Z,100.00
2019-04-27T01:38:28.989Z,100.00
2019-04-27T01:40:58.356Z,100.00
2019-04-27T01:43:28.539Z,100.00
2019-04-27T01:45:58.704Z,100.00
2019-04-27T01:48:30.608Z,100.00
2019-04-27T01:50:59.419Z,100.00
2019-04-27T01:53:28.570Z,100.00
2019-04-27T01:55:59.169Z,100.00
2019-04-27T01:58:29.287Z,100.00
2019-04-27T02:00:59.751Z,100.00
2019-04-27T02:03:38.798Z,100.00
2019-04-27T02:06:07.225Z,100.00
2019-04-27T02:08:35.690Z,100.00
2019-04-27T02:11:04.171Z,100.00
2019-04-27T02:13:32.637Z,100.00
2019-04-27T02:16:01.066Z,100.00
2019-04-27T02:18:37.498Z,100.00
2019-04-27T02:20:59.870Z,100.00
2019-04-27T02:23:29.366Z,100.00
2019-04-27T02:25:58.612Z,100.00
2019-04-27T02:28:39.358Z,100.00
2019-04-27T02:31:25.908Z,100.00
2019-04-27T02:33:55.943Z,100.00
2019-04-27T02:36:24.353Z,100.00
2019-04-27T02:38:52.747Z,100.00
2019-04-27T02:41:21.284Z,100.00
2019-04-27T02:43:51.313Z,100.00
2019-04-27T02:46:20.164Z,100.00
2019-04-27T02:48:58.730Z,100.00
2019-04-27T02:51:20.500Z,100.00
2019-04-27T02:53:56.124Z,99.65
2019-04-27T02:56:24.879Z,100.00
2019-04-27T02:58:53.347Z,100.00
2019-04-27T03:01:24.457Z,100.00
2019-04-27T03:03:52.916Z,100.00
2019-04-27T03:06:21.481Z,100.00
2019-04-27T03:08:53.923Z,100.00
2019-04-27T03:11:23.343Z,100.00
2019-04-27T03:13:59.828Z,100.00
2019-04-27T03:16:35.531Z,100.00
2019-04-27T03:19:22.142Z,100.00
2019-04-27T03:21:55.036Z,100.00
2019-04-27T03:24:25.098Z,100.00
2019-04-27T03:26:55.197Z,100.00
2019-04-27T03:29:23.993Z,100.00
2019-04-27T03:31:53.899Z,99.63
2019-04-27T03:34:22.813Z,99.46
2019-04-27T03:36:52.624Z,100.00
2019-04-27T03:39:21.056Z,100.00
2019-04-27T03:41:52.414Z,100.00
2019-04-27T03:44:19.853Z,100.00
2019-04-27T03:46:49.652Z,100.00
2019-04-27T03:49:31.877Z,100.00
2019-04-27T03:52:09.613Z,100.00
2019-04-27T03:54:50.364Z,100.00
2019-04-27T03:57:20.597Z,100.00
2019-04-27T03:59:59.864Z,100.00
2019-04-27T04:02:30.156Z,100.00
2019-04-27T04:04:59.880Z,100.00
2019-04-27T04:07:30.126Z,100.00
2019-04-27T04:10:00.316Z,100.00
2019-04-27T04:12:30.827Z,100.00
2019-04-27T04:15:00.020Z,100.00
2019-04-27T04:17:30.788Z,100.00
2019-04-27T04:20:01.699Z,100.00
2019-04-27T04:22:30.606Z,100.00
2019-04-27T04:24:59.929Z,100.00
2019-04-27T04:27:29.866Z,100.00
2019-04-27T04:29:59.462Z,100.00
2019-04-27T04:32:29.807Z,100.00
2019-04-27T04:35:21.297Z,100.00
2019-04-27T04:37:52.730Z,100.00
2019-04-27T04:40:23.255Z,100.00
2019-04-27T04:42:53.463Z,100.00
2019-04-27T04:45:23.789Z,100.00
2019-04-27T04:47:53.893Z,100.00
2019-04-27T04:50:22.759Z,100.00
2019-04-27T04:52:51.285Z,100.00
2019-04-27T04:55:20.451Z,100.00
2019-04-27T04:57:49.466Z,99.17
2019-04-27T05:03:34.881Z,99.05
2019-04-27T05:06:03.351Z,98.87
2019-04-27T05:08:31.831Z,98.70
2019-04-27T05:11:00.249Z,98.48
2019-04-27T05:13:29.308Z,98.39
2019-04-27T05:15:58.917Z,98.50
2019-04-27T05:18:29.124Z,98.77
2019-04-27T05:20:59.369Z,98.95
2019-04-27T05:23:28.742Z,98.39
2019-04-27T05:25:59.164Z,98.36
2019-04-27T05:28:27.423Z,98.47
2019-04-27T05:30:55.997Z,100.00
2019-04-27T05:33:24.396Z,100.00
2019-04-27T05:35:52.815Z,100.00
2019-04-27T05:38:21.373Z,100.00
2019-04-27T05:40:50.088Z,100.00
2019-04-27T05:43:20.366Z,100.00
2019-04-27T05:45:57.698Z,100.00
2019-04-27T05:48:33.508Z,98.56
2019-04-27T05:51:02.177Z,97.46
2019-04-27T05:53:30.566Z,94.17
2019-04-27T05:55:59.466Z,92.11
2019-04-27T05:58:28.954Z,92.19
2019-04-27T06:00:59.518Z,92.46
2019-04-27T06:03:29.692Z,91.24
2019-04-27T06:06:01.414Z,89.83
2019-04-27T06:08:29.454Z,89.27
2019-04-27T06:10:59.213Z,87.60
2019-04-27T06:13:30.742Z,87.28
2019-04-27T06:15:59.241Z,84.58
2019-04-27T06:18:29.401Z,83.86
2019-04-27T06:20:59.699Z,81.49
2019-04-27T06:23:28.932Z,81.49
2019-04-27T06:25:57.558Z,79.03
2019-04-27T06:28:26.146Z,76.63
2019-04-27T06:30:54.558Z,75.06
2019-04-27T06:33:31.961Z,71.21
2019-04-27T06:35:53.121Z,71.03
2019-04-27T06:38:21.518Z,69.41
2019-04-27T06:40:50.207Z,66.51
2019-04-27T06:43:18.975Z,67.32
2019-04-27T06:45:48.790Z,65.52
2019-04-27T06:48:19.301Z,64.07
2019-04-27T06:50:49.005Z,63.63
2019-04-27T06:53:19.174Z,62.23
2019-04-27T06:55:49.658Z,62.09
2019-04-27T06:58:20.043Z,62.78
2019-04-27T07:00:49.713Z,62.42
2019-04-27T07:03:18.912Z,61.96
2019-04-27T07:05:48.719Z,62.30
2019-04-27T07:08:18.646Z,62.94
2019-04-27T07:10:49.010Z,64.25
2019-04-27T07:13:17.277Z,64.73
2019-04-27T07:15:45.819Z,64.33
2019-04-27T07:18:14.292Z,64.40
2019-04-27T07:20:42.765Z,65.58
2019-04-27T07:23:11.301Z,67.08
2019-04-27T07:25:39.703Z,68.05
2019-04-27T07:28:09.194Z,67.77
2019-04-27T07:30:38.793Z,67.98
2019-04-27T07:33:08.722Z,67.85
2019-04-27T07:35:39.175Z,67.98
2019-04-27T07:38:07.411Z,68.39
2019-04-27T07:40:36.060Z,68.94
2019-04-27T07:43:06.114Z,70.62
2019-04-27T07:45:39.565Z,70.78
2019-04-27T07:48:09.165Z,71.85
2019-04-27T07:50:39.052Z,71.37
2019-04-27T07:53:08.655Z,70.54
2019-04-27T07:55:37.127Z,70.42
2019-04-27T07:58:05.513Z,70.21
2019-04-27T08:00:33.933Z,69.40
2019-04-27T08:03:02.331Z,68.76
2019-04-27T08:05:30.755Z,68.35
2019-04-27T08:08:00.177Z,68.61
2019-04-27T08:10:29.296Z,68.39
2019-04-27T08:12:59.585Z,68.34
2019-04-27T08:15:29.094Z,68.42
2019-04-27T08:17:59.202Z,69.64
2019-04-27T08:20:29.387Z,69.01
2019-04-27T08:22:59.851Z,71.52
2019-04-27T08:25:28.698Z,72.53
2019-04-27T08:28:00.345Z,74.00
2019-04-27T08:30:33.261Z,75.12
2019-04-27T08:33:03.447Z,75.54
2019-04-27T08:35:32.803Z,75.58
2019-04-27T08:38:01.281Z,75.75
2019-04-27T08:40:29.665Z,75.51
2019-04-27T08:42:59.177Z,75.34
2019-04-27T08:45:29.299Z,76.70
2019-04-27T08:47:59.510Z,75.94
2019-04-27T08:50:28.696Z,75.76
2019-04-27T08:52:57.178Z,77.23
2019-04-27T08:55:25.583Z,77.44
2019-04-27T08:57:54.016Z,79.12
2019-04-27T09:00:22.662Z,79.56
2019-04-27T09:02:51.071Z,79.59
2019-04-27T09:05:21.287Z,78.86
2019-04-27T09:07:51.421Z,80.44
2019-04-27T09:10:21.901Z,79.34
2019-04-27T09:13:08.867Z,79.84
2019-04-27T09:15:41.850Z,78.72
2019-04-27T09:18:11.535Z,79.53
2019-04-27T09:20:41.575Z,78.73
2019-04-27T09:23:10.020Z,79.60
2019-04-27T09:25:39.615Z,81.72
2019-04-27T09:28:08.747Z,81.72
2019-04-27T09:30:39.140Z,81.91
2019-04-27T09:33:07.942Z,82.35
2019-04-27T09:35:36.420Z,81.37
2019-04-27T09:38:06.948Z,81.22
2019-04-27T09:40:36.076Z,81.84
2019-04-27T09:43:04.593Z,81.09
2019-04-27T09:45:33.166Z,81.74
2019-04-27T09:48:01.577Z,87.38
2019-04-27T09:50:30.063Z,82.30
2019-04-27T09:52:58.460Z,82.10
2019-04-27T09:55:26.936Z,79.52
2019-04-27T09:57:56.899Z,81.70
2019-04-27T10:00:27.600Z,83.35
2019-04-27T10:02:56.407Z,80.10
2019-04-27T10:05:26.376Z,77.82
2019-04-27T10:07:56.757Z,76.82
2019-04-27T10:10:26.738Z,76.53
2019-04-27T10:12:56.775Z,76.55
2019-04-27T10:15:26.669Z,80.43
2019-04-27T10:17:55.975Z,80.88
2019-04-27T10:20:25.381Z,80.39
2019-04-27T10:22:53.873Z,80.95
2019-04-27T10:25:23.991Z,78.95
2019-04-27T10:27:58.199Z,77.67
2019-04-27T10:30:27.116Z,77.76
2019-04-27T10:32:55.665Z,78.14
2019-04-27T10:35:25.934Z,77.48
2019-04-27T10:37:54.481Z,74.39
2019-04-27T10:40:22.956Z,74.19
2019-04-27T10:42:51.357Z,74.80
2019-04-27T10:45:19.933Z,74.41
2019-04-27T10:47:49.628Z,72.95
2019-04-27T10:50:18.556Z,71.84
2019-04-27T10:52:53.215Z,72.55
2019-04-27T10:55:17.361Z,73.20
2019-04-27T10:57:45.754Z,73.93
2019-04-27T11:00:18.389Z,74.27
2019-04-27T11:02:46.792Z,72.63
2019-04-27T11:05:20.173Z,73.90
2019-04-27T11:07:48.914Z,73.47
2019-04-27T11:10:17.470Z,71.85
2019-04-27T11:12:45.912Z,72.73
2019-04-27T11:15:16.401Z,72.03
2019-04-27T11:17:47.252Z,70.15
2019-04-27T11:20:15.599Z,70.61
2019-04-27T11:22:44.079Z,71.41
2019-04-27T11:25:13.239Z,72.43
2019-04-27T11:27:41.612Z,69.94
2019-04-27T11:30:11.208Z,70.68
2019-04-27T11:32:39.912Z,72.19
2019-04-27T11:35:10.421Z,73.09
2019-04-27T11:37:38.900Z,71.66
2019-04-27T11:40:10.554Z,73.27
2019-04-27T11:42:38.951Z,71.46
2019-04-27T11:45:10.404Z,71.16
2019-04-27T11:47:38.821Z,70.51
2019-04-27T11:50:08.253Z,69.62
2019-04-27T11:52:37.180Z,72.06
2019-04-27T11:55:07.449Z,72.63
2019-04-27T11:57:37.690Z,70.77
2019-04-27T12:00:12.658Z,69.00
2019-04-27T12:02:41.288Z,70.67
2019-04-27T12:05:10.225Z,72.36
2019-04-27T12:07:38.840Z,75.10
2019-04-27T12:10:08.027Z,75.41
2019-04-27T12:12:36.458Z,77.49
2019-04-27T12:15:07.378Z,78.18
2019-04-27T12:17:35.995Z,78.54
2019-04-27T12:20:06.937Z,77.31
2019-04-27T12:22:35.369Z,77.31
2019-04-27T12:25:06.525Z,76.04
2019-04-27T12:27:36.948Z,73.93
2019-04-27T12:30:19.072Z,72.33
2019-04-27T12:32:47.559Z,70.73
2019-04-27T12:35:16.713Z,70.47
2019-04-27T12:37:45.759Z,69.31
2019-04-27T12:40:16.555Z,69.72
2019-04-27T12:42:44.857Z,68.44
2019-04-27T12:45:13.955Z,68.84
2019-04-27T12:47:46.492Z,66.87
2019-04-27T12:50:17.234Z,65.15
2019-04-27T12:52:47.403Z,62.02
2019-04-27T12:55:33.805Z,61.18
2019-04-27T12:58:03.942Z,59.60
2019-04-27T13:00:42.988Z,59.09
2019-04-27T13:03:11.473Z,56.46
2019-04-27T13:05:39.858Z,55.77
2019-04-27T13:08:08.289Z,57.17
2019-04-27T13:10:36.764Z,58.58
2019-04-27T13:13:06.300Z,59.04
2019-04-27T13:15:35.676Z,59.70
2019-04-27T13:18:05.575Z,61.36
2019-04-27T13:20:35.914Z,61.21
2019-04-27T13:23:04.511Z,62.90
2019-04-27T13:25:32.994Z,62.78
2019-04-27T13:28:01.583Z,64.34
2019-04-27T13:30:30.081Z,62.02
2019-04-27T13:32:58.469Z,62.11
2019-04-27T13:35:26.885Z,61.94
2019-04-27T13:37:55.992Z,61.55
2019-04-27T13:40:25.922Z,63.41
2019-04-27T13:43:04.865Z,64.20
2019-04-27T13:45:40.639Z,66.27
2019-04-27T13:48:10.720Z,67.72
2019-04-27T13:50:40.766Z,70.75
2019-04-27T13:53:09.163Z,71.33
2019-04-27T13:55:37.569Z,72.64
2019-04-27T13:58:06.121Z,73.74
2019-04-27T14:00:37.628Z,76.58
2019-04-27T14:03:05.174Z,79.30
2019-04-27T14:05:33.591Z,80.03
2019-04-27T14:08:01.992Z,81.50
2019-04-27T14:10:30.402Z,82.00
2019-04-27T14:12:59.179Z,85.68
2019-04-27T14:15:28.906Z,89.86
2019-04-27T14:17:59.079Z,91.70
2019-04-27T14:20:28.773Z,90.69
2019-04-27T14:23:03.337Z,97.22
2019-04-27T14:25:28.984Z,97.22
2019-04-27T14:27:58.405Z,95.26
2019-04-27T14:30:27.010Z,90.75
2019-04-27T14:32:55.420Z,88.32
2019-04-27T14:35:23.858Z,86.47
2019-04-27T14:37:52.255Z,89.55
2019-04-27T14:40:20.671Z,89.18
2019-04-27T14:42:50.582Z,89.95
2019-04-27T14:45:19.257Z,90.24
2019-04-27T14:47:48.193Z,86.37
2019-04-27T14:50:18.342Z,85.29
2019-04-27T14:52:48.556Z,85.29
2019-04-27T14:55:17.127Z,86.95
2019-04-27T14:57:45.539Z,88.01
2019-04-27T15:00:16.515Z,88.15
2019-04-27T15:02:44.910Z,86.93
2019-04-27T15:05:13.541Z,84.53
2019-04-27T15:07:41.956Z,79.80
2019-04-27T15:10:11.468Z,79.80
2019-04-27T15:12:39.881Z,79.46
2019-04-27T15:15:08.814Z,79.46
2019-04-27T15:17:37.313Z,78.77
2019-04-27T15:20:08.794Z,80.57
2019-04-27T15:22:38.187Z,78.03
2019-04-27T15:25:12.919Z,79.26
2019-04-27T15:27:42.023Z,74.54
2019-04-27T15:30:11.893Z,76.27
2019-04-27T15:32:54.008Z,76.97
2019-04-27T15:35:30.013Z,77.08
2019-04-27T15:38:05.016Z,75.18
2019-04-27T15:40:54.440Z,77.23
2019-04-27T15:43:27.238Z,77.62
2019-04-27T15:45:57.676Z,77.52
2019-04-27T15:48:30.442Z,78.36
2019-04-27T15:51:02.755Z,76.31
2019-04-27T15:53:28.402Z,71.30
2019-04-27T15:56:00.096Z,73.32
2019-04-27T15:58:28.400Z,74.64
2019-04-27T16:01:02.391Z,71.48
2019-04-27T16:03:31.255Z,71.64
2019-04-27T16:05:58.843Z,70.76
2019-04-27T16:08:28.836Z,72.23
2019-04-27T16:10:58.795Z,72.78
2019-04-27T16:13:32.964Z,72.55
2019-04-27T16:15:58.439Z,71.85
2019-04-27T16:18:29.237Z,73.70
2019-04-27T16:20:58.580Z,73.43
2019-04-27T16:23:28.184Z,72.75
2019-04-27T16:25:58.189Z,72.77
2019-04-27T16:28:27.471Z,72.79
2019-04-27T16:30:55.951Z,71.21
2019-04-27T16:33:24.390Z,70.82
2019-04-27T16:35:57.661Z,70.82
2019-04-27T16:38:38.799Z,71.11
2019-04-27T16:41:08.162Z,71.01
2019-04-27T16:43:38.546Z,72.39
2019-04-27T16:46:08.776Z,70.30
2019-04-27T16:48:39.003Z,69.40
2019-04-27T16:51:08.725Z,70.89
2019-04-27T16:53:40.992Z,73.09
2019-04-27T16:56:14.342Z,72.20
2019-04-27T16:58:39.397Z,74.63
2019-04-27T17:01:11.986Z,74.63
2019-04-27T17:03:41.382Z,76.10
2019-04-27T17:06:09.995Z,77.74
2019-04-27T17:08:39.366Z,89.82
2019-04-27T17:11:12.942Z,89.82
2019-04-27T17:13:39.752Z,85.86
2019-04-27T17:16:33.775Z,86.75
2019-04-27T17:19:04.959Z,85.93
2019-04-27T17:21:33.274Z,87.56
2019-04-27T17:24:02.986Z,87.85
2019-04-27T17:26:35.497Z,90.96
2019-04-27T17:29:03.940Z,90.65
2019-04-27T17:31:34.053Z,91.67
2019-04-27T17:34:02.551Z,91.44
2019-04-27T17:36:31.114Z,91.14
2019-04-27T17:38:59.502Z,92.88
2019-04-27T17:41:28.379Z,93.09
2019-04-27T17:43:58.968Z,91.48
2019-04-27T17:46:28.163Z,92.57
2019-04-27T17:48:58.587Z,92.53
2019-04-27T17:51:28.571Z,91.38
2019-04-27T17:53:58.630Z,91.11
2019-04-27T17:56:34.055Z,90.90
2019-04-27T17:58:58.609Z,90.94
2019-04-27T18:01:30.050Z,91.43
2019-04-27T18:04:00.056Z,92.16
2019-04-27T18:06:29.566Z,91.34
2019-04-27T18:09:00.751Z,93.33
2019-04-27T18:11:28.765Z,91.45
2019-04-27T18:14:00.488Z,91.28
2019-04-27T18:16:30.441Z,92.39
2019-04-27T18:19:18.403Z,91.65
2019-04-27T18:22:03.885Z,92.16
2019-04-27T18:24:43.105Z,92.56
2019-04-27T18:27:13.233Z,94.38
2019-04-27T18:29:41.631Z,92.73
2019-04-27T18:32:10.281Z,92.58
2019-04-27T18:34:38.982Z,93.37
2019-04-27T18:37:07.464Z,93.41
2019-04-27T18:39:35.876Z,92.00
2019-04-27T18:42:04.555Z,93.14
2019-04-27T18:44:32.961Z,94.03
2019-04-27T18:47:02.420Z,94.53
2019-04-27T18:49:48.570Z,93.88
2019-04-27T18:52:35.644Z,94.78
2019-04-27T18:55:10.898Z,94.10
2019-04-27T18:57:38.673Z,95.37
2019-04-27T19:00:07.990Z,94.67
2019-04-27T19:02:36.420Z,93.69
2019-04-27T19:05:06.490Z,92.64
2019-04-27T19:07:34.972Z,93.02
2019-04-27T19:10:04.736Z,92.97
2019-04-27T19:12:33.210Z,92.86
2019-04-27T19:15:01.695Z,92.24
2019-04-27T19:17:30.131Z,92.92
2019-04-27T19:19:58.516Z,92.94
2019-04-27T19:22:27.991Z,92.66
2019-04-27T19:24:57.030Z,92.91
2019-04-27T19:27:29.895Z,93.62
2019-04-27T19:30:03.373Z,93.81
2019-04-27T19:32:31.826Z,94.52
2019-04-27T19:35:00.321Z,93.72
2019-04-27T19:37:28.747Z,93.65
2019-04-27T19:39:58.329Z,93.16
2019-04-27T19:42:28.446Z,92.62
2019-04-27T19:44:57.033Z,93.22
2019-04-27T19:47:25.543Z,92.88
2019-04-27T19:49:53.921Z,93.36
2019-04-27T19:52:22.785Z,93.17
2019-04-27T19:54:51.211Z,94.35
2019-04-27T19:57:32.711Z,94.12
2019-04-27T19:59:51.389Z,92.35
2019-04-27T20:03:50.907Z,92.72
2019-04-27T20:06:19.338Z,92.26
2019-04-27T20:08:49.367Z,93.01
2019-04-27T20:11:17.809Z,93.92
2019-04-27T20:13:46.219Z,94.30
2019-04-27T20:16:14.630Z,93.10
2019-04-27T20:18:43.364Z,93.61
2019-04-27T20:21:12.410Z,93.77
2019-04-27T20:23:40.917Z,94.07
2019-04-27T20:26:09.374Z,94.61
2019-04-27T20:28:38.630Z,95.64
2019-04-27T20:31:07.564Z,96.43
2019-04-27T20:33:35.970Z,95.42
2019-04-27T20:36:04.620Z,96.04
2019-04-27T20:38:33.005Z,96.44
2019-04-27T20:41:01.473Z,96.52
2019-04-27T20:43:31.457Z,96.23
2019-04-27T20:46:00.861Z,95.85
2019-04-27T20:48:31.165Z,94.88
2019-04-27T20:51:01.280Z,95.47
2019-04-27T20:53:31.526Z,94.90
2019-04-27T20:55:59.916Z,94.00
2019-04-27T20:58:28.294Z,95.16
2019-04-27T21:00:56.703Z,96.68
2019-04-27T21:03:26.738Z,96.62
2019-04-27T21:05:56.759Z,96.07
2019-04-27T21:08:26.822Z,96.79
2019-04-27T21:10:55.206Z,95.52
2019-04-27T21:13:23.599Z,95.82
2019-04-27T21:15:51.991Z,97.13
2019-04-27T21:18:21.689Z,96.93
2019-04-27T21:20:51.165Z,96.21
2019-04-27T21:23:21.033Z,95.47
2019-04-27T21:25:51.272Z,93.39
2019-04-27T21:28:19.809Z,92.78
2019-04-27T21:30:48.211Z,93.43
2019-04-27T21:33:16.699Z,94.72
2019-04-27T21:35:46.751Z,95.66
2019-04-27T21:38:15.212Z,96.44
2019-04-27T21:40:43.620Z,97.23
2019-04-27T21:43:14.114Z,97.41
2019-04-27T21:45:42.517Z,97.43
2019-04-27T21:48:11.160Z,97.76
2019-04-27T21:50:41.266Z,97.80
2019-04-27T21:53:31.236Z,97.56
2019-04-27T21:56:04.491Z,98.39
2019-04-27T21:58:33.396Z,97.77
2019-04-27T22:01:11.595Z,98.07
2019-04-27T22:03:40.077Z,98.67
2019-04-27T22:06:08.551Z,98.66
2019-04-27T22:08:36.984Z,98.42
2019-04-27T22:11:05.443Z,99.13
2019-04-27T22:13:33.948Z,99.66
2019-04-27T22:16:02.386Z,99.67
2019-04-27T22:18:31.485Z,99.02
2019-04-27T22:21:01.321Z,99.55
2019-04-27T22:23:46.113Z,99.57
2019-04-27T22:26:14.498Z,99.28
2019-04-27T22:28:47.228Z,99.79
2019-04-27T22:31:13.235Z,98.57
2019-04-27T22:33:42.998Z,98.45
2019-04-27T22:36:11.533Z,98.12
2019-04-27T22:38:41.281Z,97.43
2019-04-27T22:41:22.925Z,98.17
2019-04-27T22:43:55.679Z,97.78
2019-04-27T22:46:25.710Z,98.45
2019-04-27T22:48:54.096Z,98.45
2019-04-27T22:51:22.483Z,98.41
2019-04-27T22:53:51.302Z,98.29
2019-04-27T22:56:22.305Z,98.71
2019-04-27T22:59:08.824Z,98.47
2019-04-27T23:01:51.349Z,98.49
2019-04-27T23:04:21.408Z,97.42
2019-04-27T23:06:49.794Z,96.49
2019-04-27T23:09:18.199Z,96.58
2019-04-27T23:11:46.589Z,96.80
2019-04-27T23:14:15.133Z,96.58
2019-04-27T23:16:45.290Z,97.32
2019-04-27T23:19:13.714Z,98.03
2019-04-27T23:21:42.098Z,97.96
2019-04-27T23:24:10.639Z,98.49
2019-04-27T23:26:39.028Z,99.02
2019-04-27T23:29:13.691Z,98.18
2019-04-27T23:31:41.879Z,98.06
2019-04-27T23:34:11.755Z,98.48
2019-04-27T23:36:42.307Z,97.97
2019-04-27T23:39:11.861Z,98.55
2019-04-27T23:41:40.457Z,99.01
2019-04-27T23:44:08.866Z,99.52
2019-04-27T23:46:37.268Z,100.00
2019-04-27T23:49:05.748Z,99.33
2019-04-27T23:51:35.780Z,98.51
2019-04-27T23:54:04.306Z,95.52
2019-04-27T23:56:32.771Z,95.75
2019-04-27T23:59:01.160Z,96.01
